Time;durP1;ratioP1;P1;durP2;ratioP2;P2;SDS_P1;SDS_P2;PMS_P1;PMS_P2;Temp;Humidity;BMP_temperature;BMP_pressure;BME280_temperature;BME280_humidity;BME280_pressure;Samples;Min_cycle;Max_cycle;Signal;HPM_P1;HPM_P2
2023/04/25 00:02:20;;;;;;;33.13;5.17;;;;;;;;;;5042408;28;20200;-72
2023/04/25 00:04:46;;;;;;;32.30;5.17;;;;;;;;;;5047895;28;20217;-71
2023/04/25 00:07:12;;;;;;;20.30;4.83;;;;;;;;;;5046851;28;20193;-71
2023/04/25 00:09:37;;;;;;;26.73;4.80;;;;;;;;;;5036792;28;20186;-72
2023/04/25 00:12:03;;;;;;;20.03;4.67;;;;;;;;;;5034286;28;20217;-71
2023/04/25 00:14:29;;;;;;;29.47;4.93;;;;;;;;;;5043798;28;20224;-71
2023/04/25 00:16:55;;;;;;;24.87;5.00;;;;;;;;;;5044403;28;20276;-71
2023/04/25 00:19:20;;;;;;;28.07;5.03;;;;;;;;;;5027790;28;20531;-70
2023/04/25 00:21:46;;;;;;;21.60;4.93;;;;;;;;;;5045291;28;20182;-71
2023/04/25 00:24:12;;;;;;;22.25;4.05;;;;;;;;;;5041831;28;20206;-71
2023/04/25 00:26:38;;;;;;;24.35;4.82;;;;;;;;;;5044624;28;20198;-70
2023/04/25 00:29:03;;;;;;;17.17;5.20;;;;;;;;;;5040039;28;20197;-70
2023/04/25 00:31:29;;;;;;;31.30;6.28;;;;;;;;;;5048169;28;20187;-70
2023/04/25 00:33:54;;;;;;;24.08;4.97;;;;;;;;;;5029758;28;20622;-70
2023/04/25 00:36:20;;;;;;;27.52;5.90;;;;;;;;;;5029930;28;20241;-71
2023/04/25 00:38:45;;;;;;;21.98;4.97;;;;;;;;;;5031037;28;20196;-70
2023/04/25 00:41:11;;;;;;;26.00;5.43;;;;;;;;;;5048801;28;20225;-70
2023/04/25 00:43:37;;;;;;;26.80;5.15;;;;;;;;;;5049260;28;20185;-70
2023/04/25 00:46:02;;;;;;;21.90;4.90;;;;;;;;;;5045346;28;20221;-70
2023/04/25 00:48:28;;;;;;;34.03;5.30;;;;;;;;;;5033561;28;20267;-70
2023/04/25 00:50:56;;;;;;;28.75;5.68;;;;;;;;;;5049111;28;20189;-70
2023/04/25 00:53:22;;;;;;;34.88;4.85;;;;;;;;;;5048321;28;20276;-70
2023/04/25 00:55:50;;;;;;;30.67;5.57;;;;;;;;;;5045220;28;20196;-70
2023/04/25 00:58:19;;;;;;;34.50;5.57;;;;;;;;;;5048000;28;20273;-70
2023/04/25 01:00:46;;;;;;;23.97;5.00;;;;;;;;;;5044279;28;20213;-71
2023/04/25 01:03:12;;;;;;;34.07;5.87;;;;;;;;;;5042147;28;20699;-70
2023/04/25 01:05:40;;;;;;;28.50;5.73;;;;;;;;;;5047046;28;20834;-70
2023/04/25 01:08:06;;;;;;;27.07;5.23;;;;;;;;;;5049160;28;20276;-70
2023/04/25 01:10:31;;;;;;;32.77;6.63;;;;;;;;;;5043374;28;20273;-70
2023/04/25 01:12:57;;;;;;;25.33;5.00;;;;;;;;;;5034781;28;20198;-71
2023/04/25 01:15:22;;;;;;;24.77;5.00;;;;;;;;;;5038571;28;20258;-70
2023/04/25 01:17:49;;;;;;;24.35;5.53;;;;;;;;;;5047658;28;20200;-71
2023/04/25 01:20:15;;;;;;;33.22;5.78;;;;;;;;;;5039385;28;20287;-71
2023/04/25 01:22:41;;;;;;;31.53;4.90;;;;;;;;;;5034030;28;20177;-71
2023/04/25 01:25:08;;;;;;;25.43;5.67;;;;;;;;;;5047856;28;20429;-70
2023/04/25 01:27:33;;;;;;;28.17;4.87;;;;;;;;;;5047424;28;20189;-70
2023/04/25 01:29:59;;;;;;;30.20;6.43;;;;;;;;;;5047919;28;20836;-70
2023/04/25 01:32:26;;;;;;;21.93;5.10;;;;;;;;;;5031326;28;20208;-71
2023/04/25 01:34:51;;;;;;;25.17;5.07;;;;;;;;;;5042310;28;20189;-71
2023/04/25 01:37:17;;;;;;;27.40;5.47;;;;;;;;;;5044980;28;20197;-70
2023/04/25 01:39:43;;;;;;;35.95;6.45;;;;;;;;;;5033034;28;20182;-71
2023/04/25 01:42:08;;;;;;;35.25;6.00;;;;;;;;;;5039835;28;20197;-71
2023/04/25 01:44:34;;;;;;;28.95;6.45;;;;;;;;;;5041404;28;20237;-70
2023/04/25 01:46:59;;;;;;;24.63;6.10;;;;;;;;;;5045644;28;20540;-70
2023/04/25 01:49:24;;;;;;;29.70;5.55;;;;;;;;;;5047796;28;20224;-70
2023/04/25 01:51:50;;;;;;;29.83;5.90;;;;;;;;;;5042636;28;20244;-70
2023/04/25 01:54:16;;;;;;;25.77;5.50;;;;;;;;;;5041331;28;20188;-69
2023/04/25 01:56:42;;;;;;;26.60;5.10;;;;;;;;;;5041983;28;20272;-69
2023/04/25 01:59:08;;;;;;;26.13;5.80;;;;;;;;;;5046658;28;20276;-69
2023/04/25 02:01:33;;;;;;;30.47;5.07;;;;;;;;;;5042437;28;20224;-69
2023/04/25 02:03:59;;;;;;;23.47;4.90;;;;;;;;;;5040438;28;20269;-69
2023/04/25 02:06:24;;;;;;;17.27;4.57;;;;;;;;;;5038083;28;20243;-70
2023/04/25 02:08:50;;;;;;;20.57;5.30;;;;;;;;;;5046760;28;20219;-70
2023/04/25 02:11:15;;;;;;;26.50;6.57;;;;;;;;;;5047376;28;20189;-70
2023/04/25 02:13:41;;;;;;;23.43;5.07;;;;;;;;;;5052510;28;20198;-70
2023/04/25 02:16:06;;;;;;;27.17;5.20;;;;;;;;;;5039358;28;20622;-70
2023/04/25 02:18:31;;;;;;;22.63;4.30;;;;;;;;;;5045930;28;20181;-70
2023/04/25 02:20:59;;;;;;;20.80;4.77;;;;;;;;;;5043281;28;20197;-70
2023/04/25 02:23:24;;;;;;;27.87;4.97;;;;;;;;;;5048667;28;20228;-70
2023/04/25 02:25:50;;;;;;;27.47;5.47;;;;;;;;;;5045766;28;20677;-70
2023/04/25 02:28:15;;;;;;;26.30;4.63;;;;;;;;;;5046795;28;20182;-69
2023/04/25 02:30:41;;;;;;;31.00;4.90;;;;;;;;;;5045725;28;20190;-68
2023/04/25 02:33:06;;;;;;;20.57;5.07;;;;;;;;;;5042053;28;20193;-69
2023/04/25 02:35:31;;;;;;;19.90;4.87;;;;;;;;;;5042356;28;20607;-69
2023/04/25 02:37:57;;;;;;;22.87;5.17;;;;;;;;;;5040457;28;20228;-69
2023/04/25 02:40:22;;;;;;;20.77;4.17;;;;;;;;;;5040076;28;20621;-70
2023/04/25 02:42:48;;;;;;;25.03;4.50;;;;;;;;;;5049485;28;20189;-70
2023/04/25 02:45:13;;;;;;;27.03;5.20;;;;;;;;;;5049596;28;20691;-70
2023/04/25 02:47:38;;;;;;;16.67;4.17;;;;;;;;;;5039781;28;20673;-70
2023/04/25 02:50:04;;;;;;;14.67;4.37;;;;;;;;;;5045988;28;20534;-70
2023/04/25 02:52:30;;;;;;;19.33;4.00;;;;;;;;;;5048316;28;20280;-71
2023/04/25 02:54:55;;;;;;;14.20;4.67;;;;;;;;;;5049961;28;20645;-70
2023/04/25 02:57:21;;;;;;;17.83;3.73;;;;;;;;;;5041646;28;20200;-70
2023/04/25 02:59:46;;;;;;;21.57;4.10;;;;;;;;;;5043079;28;20212;-70
2023/04/25 03:02:11;;;;;;;17.80;3.80;;;;;;;;;;5047072;28;20530;-68
2023/04/25 03:04:37;;;;;;;16.97;4.00;;;;;;;;;;5047351;28;20724;-69
2023/04/25 03:07:03;;;;;;;22.80;3.67;;;;;;;;;;5048235;28;20264;-70
2023/04/25 03:09:28;;;;;;;21.90;3.97;;;;;;;;;;5050007;28;20273;-70
2023/04/25 03:11:54;;;;;;;18.70;3.97;;;;;;;;;;5046597;28;20194;-70
2023/04/25 03:14:19;;;;;;;13.50;3.73;;;;;;;;;;5038135;28;20189;-70
2023/04/25 03:16:45;;;;;;;16.10;4.10;;;;;;;;;;5043839;28;20228;-70
2023/04/25 03:19:10;;;;;;;16.20;4.20;;;;;;;;;;5047733;28;20193;-70
2023/04/25 03:21:36;;;;;;;18.93;4.10;;;;;;;;;;5050083;28;20190;-70
2023/04/25 03:24:03;;;;;;;18.00;3.90;;;;;;;;;;5047477;28;20274;-70
2023/04/25 03:26:29;;;;;;;14.97;3.60;;;;;;;;;;5039218;28;20547;-69
2023/04/25 03:28:54;;;;;;;15.83;3.60;;;;;;;;;;5036305;28;20201;-70
2023/04/25 03:31:20;;;;;;;27.77;5.17;;;;;;;;;;5046710;28;20200;-70
2023/04/25 03:33:45;;;;;;;12.70;3.47;;;;;;;;;;5047064;28;20201;-70
2023/04/25 03:36:11;;;;;;;20.37;3.90;;;;;;;;;;5040908;28;20271;-70
2023/04/25 03:38:36;;;;;;;20.10;3.90;;;;;;;;;;5040170;28;20273;-70
2023/04/25 03:41:02;;;;;;;21.20;4.30;;;;;;;;;;5043432;28;20220;-70
2023/04/25 03:43:27;;;;;;;15.00;3.67;;;;;;;;;;5049731;28;20192;-69
2023/04/25 03:45:53;;;;;;;14.37;3.77;;;;;;;;;;5039418;28;20279;-69
2023/04/25 03:48:21;;;;;;;23.97;3.83;;;;;;;;;;5043919;28;20248;-69
2023/04/25 03:50:47;;;;;;;15.33;3.67;;;;;;;;;;5045357;28;20177;-69
2023/04/25 03:53:12;;;;;;;14.43;3.30;;;;;;;;;;5035609;28;20194;-69
2023/04/25 03:55:37;;;;;;;17.77;3.87;;;;;;;;;;5046136;28;20298;-69
2023/04/25 03:58:03;;;;;;;15.73;3.70;;;;;;;;;;5045076;28;21290;-69
2023/04/25 04:00:28;;;;;;;18.37;4.07;;;;;;;;;;5049485;28;20201;-70
2023/04/25 04:02:54;;;;;;;17.10;3.63;;;;;;;;;;5041017;28;20201;-71
2023/04/25 04:05:19;;;;;;;22.23;4.60;;;;;;;;;;5043503;28;20228;-70
2023/04/25 04:07:44;;;;;;;20.93;4.20;;;;;;;;;;5047814;28;20259;-69
2023/04/25 04:10:10;;;;;;;16.90;4.37;;;;;;;;;;5049047;28;20213;-69
2023/04/25 04:12:36;;;;;;;16.30;4.17;;;;;;;;;;5049009;28;20185;-69
2023/04/25 04:15:06;;;;;;;19.07;4.03;;;;;;;;;;5054708;28;20190;-69
2023/04/25 04:17:32;;;;;;;17.97;4.13;;;;;;;;;;5033251;28;20186;-69
2023/04/25 04:19:57;;;;;;;16.03;4.17;;;;;;;;;;5040470;28;20235;-69
2023/04/25 04:22:25;;;;;;;16.80;3.63;;;;;;;;;;5034403;28;20214;-69
2023/04/25 04:24:52;;;;;;;20.97;4.60;;;;;;;;;;5039776;28;20653;-70
2023/04/25 04:27:18;;;;;;;15.60;3.87;;;;;;;;;;5038819;28;20554;-71
2023/04/25 04:29:45;;;;;;;10.43;3.60;;;;;;;;;;5043614;28;20390;-70
2023/04/25 04:32:13;;;;;;;17.80;4.70;;;;;;;;;;5043844;28;20657;-71
2023/04/25 04:34:39;;;;;;;23.10;4.07;;;;;;;;;;5041783;28;20190;-68
2023/04/25 04:37:05;;;;;;;18.47;4.43;;;;;;;;;;5039743;28;20248;-69
2023/04/25 04:39:30;;;;;;;19.03;4.47;;;;;;;;;;5040339;28;20250;-69
2023/04/25 04:41:56;;;;;;;10.57;3.13;;;;;;;;;;5043862;28;20276;-69
2023/04/25 04:44:22;;;;;;;22.17;4.57;;;;;;;;;;5036992;28;20721;-69
2023/04/25 04:46:48;;;;;;;14.57;4.20;;;;;;;;;;5037740;28;20197;-69
2023/04/25 04:49:13;;;;;;;18.80;4.27;;;;;;;;;;5047785;28;20181;-69
2023/04/25 04:51:41;;;;;;;13.60;3.67;;;;;;;;;;5040964;28;20609;-69
2023/04/25 04:54:06;;;;;;;13.87;3.43;;;;;;;;;;5043712;28;20662;-69
2023/04/25 04:56:32;;;;;;;17.63;4.13;;;;;;;;;;5046811;28;20224;-69
2023/04/25 04:58:58;;;;;;;21.23;4.20;;;;;;;;;;5049041;28;20193;-69
2023/04/25 05:01:24;;;;;;;18.13;3.30;;;;;;;;;;5026936;28;20461;-70
2023/04/25 05:03:49;;;;;;;17.90;3.80;;;;;;;;;;5042656;28;20185;-70
2023/04/25 05:06:16;;;;;;;16.67;3.73;;;;;;;;;;5036978;28;20197;-70
2023/04/25 05:08:42;;;;;;;14.10;3.33;;;;;;;;;;5037371;28;20209;-70
2023/04/25 05:11:07;;;;;;;13.57;3.97;;;;;;;;;;5041539;28;20198;-70
2023/04/25 05:13:32;;;;;;;26.27;4.67;;;;;;;;;;5045475;28;20216;-72
2023/04/25 05:15:58;;;;;;;18.93;4.50;;;;;;;;;;5038528;28;20186;-69
2023/04/25 05:18:23;;;;;;;16.20;3.43;;;;;;;;;;5032607;28;20198;-70
2023/04/25 05:20:48;;;;;;;16.87;3.73;;;;;;;;;;5046615;28;20315;-70
2023/04/25 05:23:14;;;;;;;11.93;3.30;;;;;;;;;;5043504;28;20192;-70
2023/04/25 05:25:39;;;;;;;18.15;3.50;;;;;;;;;;5040781;28;20659;-69
2023/04/25 05:28:05;;;;;;;20.75;3.63;;;;;;;;;;5038298;28;20194;-70
2023/04/25 05:30:30;;;;;;;12.80;3.30;;;;;;;;;;5036060;28;20223;-69
2023/04/25 05:32:56;;;;;;;16.30;3.75;;;;;;;;;;5038329;28;20224;-69
2023/04/25 05:35:21;;;;;;;15.93;3.67;;;;;;;;;;5039634;28;20229;-70
2023/04/25 05:37:46;;;;;;;12.73;2.97;;;;;;;;;;5042824;28;20177;-69
2023/04/25 05:40:12;;;;;;;14.87;3.07;;;;;;;;;;5041096;28;20228;-69
2023/04/25 05:42:37;;;;;;;12.70;2.85;;;;;;;;;;5046840;28;20187;-69
2023/04/25 05:45:03;;;;;;;18.02;4.07;;;;;;;;;;5033259;28;20229;-69
2023/04/25 05:47:29;;;;;;;15.40;3.13;;;;;;;;;;5041909;28;20272;-69
2023/04/25 05:49:55;;;;;;;12.13;2.53;;;;;;;;;;5039260;28;20276;-69
2023/04/25 05:52:20;;;;;;;12.43;3.10;;;;;;;;;;5045420;28;20193;-69
2023/04/25 05:54:45;;;;;;;15.37;2.50;;;;;;;;;;5046104;28;20259;-70
2023/04/25 05:57:24;;;;;;;12.47;2.70;;;;;;;;;;5038881;28;20221;-69
2023/04/25 05:59:50;;;;;;;10.90;2.30;;;;;;;;;;5042469;28;20181;-70
2023/04/25 06:02:17;;;;;;;9.48;2.47;;;;;;;;;;5045865;28;20221;-69
2023/04/25 06:04:42;;;;;;;11.77;2.22;;;;;;;;;;5045629;28;20245;-70
2023/04/25 06:07:08;;;;;;;16.08;2.28;;;;;;;;;;5042577;28;20757;-69
2023/04/25 06:09:34;;;;;;;12.38;2.15;;;;;;;;;;5046884;28;20201;-69
2023/04/25 06:11:59;;;;;;;10.05;2.38;;;;;;;;;;5044429;28;20193;-69
2023/04/25 06:14:25;;;;;;;15.20;2.40;;;;;;;;;;5048774;28;20203;-69
2023/04/25 06:16:50;;;;;;;11.85;2.20;;;;;;;;;;5050777;28;20196;-69
2023/04/25 06:19:15;;;;;;;14.15;2.28;;;;;;;;;;5046207;28;20189;-70
2023/04/25 06:21:43;;;;;;;9.65;1.75;;;;;;;;;;5044631;28;20264;-69
2023/04/25 06:24:08;;;;;;;17.10;3.00;;;;;;;;;;5046385;28;20244;-69
2023/04/25 06:26:33;;;;;;;15.13;2.67;;;;;;;;;;5049775;28;20193;-69
2023/04/25 06:28:59;;;;;;;13.75;2.70;;;;;;;;;;5044731;28;20273;-69
2023/04/25 06:31:25;;;;;;;14.90;2.45;;;;;;;;;;5032082;28;20274;-69
2023/04/25 06:33:50;;;;;;;10.70;2.40;;;;;;;;;;5048847;28;20217;-69
2023/04/25 06:36:15;;;;;;;12.80;2.50;;;;;;;;;;5044361;28;20603;-68
2023/04/25 06:38:41;;;;;;;11.57;2.85;;;;;;;;;;5042458;28;20198;-69
2023/04/25 06:41:06;;;;;;;10.07;2.58;;;;;;;;;;5047418;28;20611;-69
2023/04/25 06:43:33;;;;;;;16.83;2.08;;;;;;;;;;5050107;28;20219;-69
2023/04/25 06:46:00;;;;;;;12.15;2.50;;;;;;;;;;5041528;28;20236;-69
2023/04/25 06:48:26;;;;;;;8.80;2.25;;;;;;;;;;5041823;28;20593;-68
2023/04/25 06:50:52;;;;;;;13.75;2.47;;;;;;;;;;5038532;28;20343;-69
2023/04/25 06:53:18;;;;;;;7.65;2.10;;;;;;;;;;5043951;28;20276;-70
2023/04/25 06:55:43;;;;;;;18.85;2.50;;;;;;;;;;5033847;28;20261;-69
2023/04/25 06:58:09;;;;;;;11.80;2.10;;;;;;;;;;5037069;28;20713;-68
2023/04/25 07:00:34;;;;;;;15.88;2.05;;;;;;;;;;5042209;28;20210;-69
2023/04/25 07:03:00;;;;;;;14.52;1.83;;;;;;;;;;5041224;28;20220;-70
2023/04/25 07:05:25;;;;;;;12.55;1.80;;;;;;;;;;5046231;28;20202;-70
2023/04/25 07:07:51;;;;;;;8.45;1.83;;;;;;;;;;5044236;28;20197;-69
2023/04/25 07:10:16;;;;;;;12.70;3.07;;;;;;;;;;5042461;28;20189;-69
2023/04/25 07:12:41;;;;;;;10.77;2.00;;;;;;;;;;5040237;28;20190;-69
2023/04/25 07:15:09;;;;;;;8.43;2.13;;;;;;;;;;5048426;28;20554;-69
2023/04/25 07:17:35;;;;;;;14.10;2.30;;;;;;;;;;5049633;28;20184;-69
2023/04/25 07:20:00;;;;;;;7.60;1.70;;;;;;;;;;5049172;28;20202;-69
2023/04/25 07:22:26;;;;;;;10.50;2.00;;;;;;;;;;5033713;28;20192;-70
2023/04/25 07:24:53;;;;;;;17.13;2.50;;;;;;;;;;5042339;28;20206;-69
2023/04/25 07:27:18;;;;;;;9.63;1.77;;;;;;;;;;5032019;28;20185;-68
2023/04/25 07:29:44;;;;;;;6.97;1.15;;;;;;;;;;5043364;28;20205;-68
2023/04/25 07:32:11;;;;;;;9.47;1.40;;;;;;;;;;5041394;28;20200;-69
2023/04/25 07:34:38;;;;;;;11.35;2.00;;;;;;;;;;5044844;28;20174;-69
2023/04/25 07:37:04;;;;;;;7.47;1.50;;;;;;;;;;5041931;28;20201;-69
2023/04/25 07:39:29;;;;;;;9.40;1.40;;;;;;;;;;5042070;28;20197;-69
2023/04/25 07:41:54;;;;;;;8.20;1.40;;;;;;;;;;5048405;28;20194;-69
2023/04/25 07:44:20;;;;;;;8.18;1.45;;;;;;;;;;5045939;28;20229;-69
2023/04/25 07:46:45;;;;;;;7.53;1.10;;;;;;;;;;5044908;28;20177;-69
2023/04/25 07:49:11;;;;;;;9.02;1.10;;;;;;;;;;5045535;28;20197;-69
2023/04/25 07:51:36;;;;;;;8.02;1.10;;;;;;;;;;5036013;28;20193;-69
2023/04/25 07:54:01;;;;;;;6.05;0.80;;;;;;;;;;5044601;28;20186;-71
2023/04/25 07:56:27;;;;;;;8.27;1.27;;;;;;;;;;5043079;28;20189;-70
2023/04/25 07:58:52;;;;;;;10.65;1.42;;;;;;;;;;5037657;28;20265;-70
2023/04/25 08:01:18;;;;;;;9.40;1.20;;;;;;;;;;5045587;28;20679;-69
2023/04/25 08:03:44;;;;;;;7.75;1.95;;;;;;;;;;5044772;28;20265;-69
2023/04/25 08:06:09;;;;;;;5.60;1.10;;;;;;;;;;5038806;28;20220;-67
2023/04/25 08:08:35;;;;;;;7.57;1.10;;;;;;;;;;5039325;28;20198;-69
2023/04/25 08:11:00;;;;;;;11.77;2.72;;;;;;;;;;5035181;28;20198;-69
2023/04/25 08:13:25;;;;;;;9.65;1.73;;;;;;;;;;5034223;28;20668;-69
2023/04/25 08:15:51;;;;;;;9.10;1.58;;;;;;;;;;5034621;28;20201;-68
2023/04/25 08:18:16;;;;;;;7.80;1.35;;;;;;;;;;5041559;28;20198;-69
2023/04/25 08:20:41;;;;;;;9.30;1.90;;;;;;;;;;5047824;28;20190;-68
2023/04/25 08:23:07;;;;;;;12.35;1.42;;;;;;;;;;5047512;28;20231;-70
2023/04/25 08:25:33;;;;;;;12.25;2.05;;;;;;;;;;5044646;28;20220;-69
2023/04/25 08:27:59;;;;;;;11.05;2.17;;;;;;;;;;5038023;28;20279;-69
2023/04/25 08:30:24;;;;;;;6.05;1.30;;;;;;;;;;5031749;28;20213;-70
2023/04/25 08:32:50;;;;;;;8.98;1.30;;;;;;;;;;5043131;28;20186;-70
2023/04/25 08:35:17;;;;;;;10.98;1.80;;;;;;;;;;5042028;28;20212;-69
2023/04/25 08:37:42;;;;;;;8.52;1.38;;;;;;;;;;5040514;28;20624;-68
2023/04/25 08:40:14;;;;;;;8.13;1.60;;;;;;;;;;5037512;28;20222;-69
2023/04/25 08:42:41;;;;;;;10.18;1.77;;;;;;;;;;5039101;28;20250;-69
2023/04/25 08:45:08;;;;;;;10.80;1.95;;;;;;;;;;5044158;28;20262;-71
2023/04/25 08:47:34;;;;;;;13.10;2.17;;;;;;;;;;5043969;28;20208;-69
2023/04/25 08:50:01;;;;;;;9.07;1.52;;;;;;;;;;5040635;28;20193;-70
2023/04/25 08:52:32;;;;;;;6.68;1.15;;;;;;;;;;5040700;28;20185;-68
2023/04/25 08:54:59;;;;;;;8.40;1.20;;;;;;;;;;5043532;28;20213;-68
2023/04/25 08:57:25;;;;;;;10.50;2.10;;;;;;;;;;5045891;28;20253;-67
2023/04/25 08:59:52;;;;;;;11.88;1.40;;;;;;;;;;5044478;28;20193;-67
2023/04/25 09:02:20;;;;;;;5.65;1.20;;;;;;;;;;5043076;28;20197;-69
2023/04/25 09:04:45;;;;;;;7.13;1.25;;;;;;;;;;5036423;28;20291;-67
2023/04/25 09:07:11;;;;;;;13.02;1.35;;;;;;;;;;5046860;28;20208;-70
2023/04/25 09:09:37;;;;;;;7.88;1.45;;;;;;;;;;5040048;28;20242;-69
2023/04/25 09:12:02;;;;;;;7.28;1.30;;;;;;;;;;5037299;28;20292;-68
2023/04/25 09:14:28;;;;;;;6.07;1.40;;;;;;;;;;5039837;28;20190;-69
2023/04/25 09:16:56;;;;;;;5.85;1.15;;;;;;;;;;5041746;28;20250;-68
2023/04/25 09:19:33;;;;;;;6.25;1.45;;;;;;;;;;5036176;28;20190;-68
2023/04/25 09:22:00;;;;;;;10.88;1.40;;;;;;;;;;5034310;28;20182;-68
2023/04/25 09:24:33;;;;;;;4.70;1.30;;;;;;;;;;5047030;28;20213;-68
2023/04/25 09:26:58;;;;;;;7.57;1.58;;;;;;;;;;5046883;28;20186;-69
2023/04/25 09:29:30;;;;;;;6.28;0.90;;;;;;;;;;5031536;28;20654;-77
2023/04/25 09:32:18;;;;;;;3.35;0.75;;;;;;;;;;5041273;28;20585;-69
2023/04/25 09:34:48;;;;;;;12.77;1.42;;;;;;;;;;5038661;28;20182;-69
2023/04/25 09:37:30;;;;;;;7.45;1.30;;;;;;;;;;5046225;28;20186;-69
2023/04/25 09:40:02;;;;;;;4.60;1.30;;;;;;;;;;5041577;28;20637;-70
2023/04/25 09:42:31;;;;;;;7.05;1.48;;;;;;;;;;5036835;28;20327;-71
2023/04/25 09:44:57;;;;;;;5.17;1.17;;;;;;;;;;5040067;28;20325;-69
2023/04/25 09:47:24;;;;;;;7.15;1.20;;;;;;;;;;5045961;28;20189;-69
2023/04/25 09:49:51;;;;;;;7.43;1.47;;;;;;;;;;5045546;28;20201;-70
2023/04/25 09:52:19;;;;;;;5.13;1.80;;;;;;;;;;5037808;28;20676;-70
2023/04/25 09:54:45;;;;;;;12.40;1.73;;;;;;;;;;5035422;28;20491;-70
2023/04/25 09:57:16;;;;;;;7.35;1.30;;;;;;;;;;5047778;28;20189;-70
2023/04/25 09:59:47;;;;;;;8.25;1.38;;;;;;;;;;5046167;28;20181;-70
2023/04/25 10:02:21;;;;;;;8.93;1.35;;;;;;;;;;5044353;28;20197;-71
2023/04/25 10:04:49;;;;;;;7.07;1.42;;;;;;;;;;5044821;28;20254;-69
2023/04/25 10:07:14;;;;;;;10.32;1.48;;;;;;;;;;5047895;28;20186;-70
2023/04/25 10:09:41;;;;;;;7.15;1.50;;;;;;;;;;5043263;28;20634;-71
2023/04/25 10:12:07;;;;;;;7.63;1.30;;;;;;;;;;5038988;28;20345;-71
2023/04/25 10:14:34;;;;;;;8.95;1.20;;;;;;;;;;5040842;28;20185;-70
2023/04/25 10:17:00;;;;;;;3.78;0.68;;;;;;;;;;5040245;28;20190;-70
2023/04/25 10:19:27;;;;;;;5.03;1.02;;;;;;;;;;5042381;28;20543;-70
2023/04/25 10:22:02;;;;;;;5.18;1.10;;;;;;;;;;5045255;28;20197;-70
2023/04/25 10:24:27;;;;;;;5.63;1.02;;;;;;;;;;5039011;28;20275;-70
2023/04/25 10:26:53;;;;;;;6.55;1.10;;;;;;;;;;5043577;28;20207;-69
2023/04/25 10:29:26;;;;;;;4.05;0.90;;;;;;;;;;5035580;28;20189;-69
2023/04/25 10:31:51;;;;;;;4.85;0.80;;;;;;;;;;5041794;28;20289;-69
2023/04/25 10:34:17;;;;;;;5.38;1.20;;;;;;;;;;5042905;28;20279;-69
2023/04/25 10:36:51;;;;;;;3.00;0.90;;;;;;;;;;5043011;28;20197;-68
2023/04/25 10:39:22;;;;;;;6.30;0.90;;;;;;;;;;5040810;28;20198;-70
2023/04/25 10:41:53;;;;;;;3.60;1.20;;;;;;;;;;5041885;28;20638;-73
2023/04/25 10:44:19;;;;;;;6.10;1.20;;;;;;;;;;5030191;28;20237;-68
2023/04/25 10:46:45;;;;;;;5.78;1.08;;;;;;;;;;5030930;28;20186;-70
2023/04/25 10:49:29;;;;;;;7.88;1.05;;;;;;;;;;5035635;28;20217;-72
2023/04/25 10:52:26;;;;;;;8.57;1.25;;;;;;;;;;5042041;28;20194;-70
2023/04/25 10:54:57;;;;;;;6.88;1.23;;;;;;;;;;5039148;28;20277;-68
2023/04/25 10:57:37;;;;;;;6.72;1.10;;;;;;;;;;5038191;28;20182;-69
2023/04/25 11:00:11;;;;;;;9.55;1.35;;;;;;;;;;5036924;28;20194;-68
2023/04/25 11:02:44;;;;;;;4.43;1.10;;;;;;;;;;5045729;28;20659;-69
2023/04/25 11:05:10;;;;;;;7.22;1.02;;;;;;;;;;5047715;28;20217;-68
2023/04/25 11:07:58;;;;;;;5.95;1.02;;;;;;;;;;5039618;28;20174;-68
2023/04/25 11:10:27;;;;;;;4.22;0.88;;;;;;;;;;5045424;28;20278;-68
2023/04/25 11:12:53;;;;;;;4.63;0.80;;;;;;;;;;5055031;28;20259;-68
2023/04/25 11:15:18;;;;;;;4.30;1.08;;;;;;;;;;5042442;28;20268;-69
2023/04/25 11:17:46;;;;;;;5.63;1.02;;;;;;;;;;5040704;28;20628;-68
2023/04/25 11:20:13;;;;;;;3.35;1.10;;;;;;;;;;5048067;28;20184;-68
2023/04/25 11:22:40;;;;;;;9.80;1.17;;;;;;;;;;5054986;28;20205;-68
2023/04/25 11:25:07;;;;;;;2.40;1.02;;;;;;;;;;5056116;28;20706;-69
2023/04/25 11:27:33;;;;;;;8.07;0.98;;;;;;;;;;5052478;28;20193;-69
2023/04/25 11:29:58;;;;;;;3.47;0.85;;;;;;;;;;5044025;28;20197;-69
2023/04/25 11:32:23;;;;;;;6.13;1.00;;;;;;;;;;5048632;28;20569;-68
2023/04/25 11:34:49;;;;;;;7.38;0.88;;;;;;;;;;5058252;28;20232;-69
2023/04/25 11:37:15;;;;;;;14.25;1.20;;;;;;;;;;5056476;28;20233;-70
2023/04/25 11:39:45;;;;;;;6.18;1.20;;;;;;;;;;5042154;28;20580;-76
2023/04/25 11:42:11;;;;;;;7.40;1.45;;;;;;;;;;5050038;28;20590;-69
2023/04/25 11:44:39;;;;;;;5.43;1.42;;;;;;;;;;5046709;28;20288;-69
2023/04/25 11:47:05;;;;;;;8.25;1.75;;;;;;;;;;5038150;28;20869;-70
2023/04/25 11:49:31;;;;;;;3.67;1.00;;;;;;;;;;5059554;28;20201;-73
2023/04/25 11:51:57;;;;;;;5.18;1.17;;;;;;;;;;5035581;28;20185;-71
2023/04/25 11:54:22;;;;;;;4.75;1.23;;;;;;;;;;5043608;28;20239;-70
2023/04/25 11:56:48;;;;;;;4.22;1.10;;;;;;;;;;5029688;28;20217;-70
2023/04/25 11:59:14;;;;;;;6.18;1.38;;;;;;;;;;5035109;28;20189;-70
2023/04/25 12:01:41;;;;;;;5.47;1.30;;;;;;;;;;5039241;28;20660;-71
2023/04/25 12:04:15;;;;;;;7.55;1.27;;;;;;;;;;5044495;28;20212;-71
2023/04/25 12:06:42;;;;;;;4.88;1.20;;;;;;;;;;5035415;28;20194;-70
2023/04/25 12:09:10;;;;;;;3.58;0.70;;;;;;;;;;5032739;28;20273;-70
2023/04/25 12:11:46;;;;;;;5.72;0.68;;;;;;;;;;5045513;28;20177;-68
2023/04/25 12:14:19;;;;;;;5.93;0.90;;;;;;;;;;5033083;28;20221;-70
2023/04/25 12:16:46;;;;;;;5.68;0.90;;;;;;;;;;5049549;28;20288;-67
2023/04/25 12:19:16;;;;;;;7.20;1.10;;;;;;;;;;5046799;28;20185;-70
2023/04/25 12:21:41;;;;;;;4.07;0.95;;;;;;;;;;5038132;28;20279;-70
2023/04/25 12:24:26;;;;;;;8.57;1.10;;;;;;;;;;5045762;28;20621;-69
2023/04/25 12:26:58;;;;;;;6.75;1.10;;;;;;;;;;5037996;28;20281;-69
2023/04/25 12:29:25;;;;;;;3.55;1.00;;;;;;;;;;5045378;28;20185;-68
2023/04/25 12:31:52;;;;;;;4.03;1.10;;;;;;;;;;5047189;28;20281;-68
2023/04/25 12:34:21;;;;;;;7.68;1.10;;;;;;;;;;5038002;28;20194;-69
2023/04/25 12:36:47;;;;;;;5.85;1.23;;;;;;;;;;5036484;28;20190;-68
2023/04/25 12:39:21;;;;;;;5.75;1.27;;;;;;;;;;5046900;28;20307;-67
2023/04/25 12:41:47;;;;;;;6.35;1.10;;;;;;;;;;5053224;28;20186;-67
2023/04/25 12:44:13;;;;;;;7.82;1.25;;;;;;;;;;5048361;28;20239;-67
2023/04/25 12:46:40;;;;;;;3.40;1.38;;;;;;;;;;5048156;28;20181;-68
2023/04/25 12:49:07;;;;;;;8.18;1.25;;;;;;;;;;5048563;28;20185;-67
2023/04/25 12:51:33;;;;;;;8.10;1.13;;;;;;;;;;5045049;28;20190;-69
2023/04/25 12:53:59;;;;;;;8.43;1.10;;;;;;;;;;5039153;28;20197;-70
2023/04/25 12:56:26;;;;;;;3.10;0.93;;;;;;;;;;5030332;28;20266;-67
2023/04/25 12:58:52;;;;;;;6.25;0.60;;;;;;;;;;5028396;28;20189;-68
2023/04/25 13:01:17;;;;;;;7.25;0.93;;;;;;;;;;5037619;28;20202;-67
2023/04/25 13:03:43;;;;;;;3.53;0.70;;;;;;;;;;5032773;28;20189;-67
2023/04/25 13:06:08;;;;;;;3.72;0.70;;;;;;;;;;5029302;28;20210;-69
2023/04/25 13:08:34;;;;;;;5.45;0.70;;;;;;;;;;5043479;28;20680;-67
2023/04/25 13:11:00;;;;;;;1.90;0.50;;;;;;;;;;5036065;28;20194;-67
2023/04/25 13:13:27;;;;;;;4.15;0.90;;;;;;;;;;5030333;28;20201;-67
2023/04/25 13:15:52;;;;;;;5.50;0.77;;;;;;;;;;5039257;28;20190;-68
2023/04/25 13:18:19;;;;;;;5.10;1.00;;;;;;;;;;5041225;28;20189;-67
2023/04/25 13:20:44;;;;;;;5.07;0.95;;;;;;;;;;5040809;28;20202;-68
2023/04/25 13:23:10;;;;;;;6.65;1.45;;;;;;;;;;5035138;28;20257;-68
2023/04/25 13:25:35;;;;;;;2.85;1.20;;;;;;;;;;5043775;28;20259;-70
2023/04/25 13:28:01;;;;;;;5.63;0.82;;;;;;;;;;5041405;28;20204;-69
2023/04/25 13:30:26;;;;;;;6.45;1.10;;;;;;;;;;5042183;28;20592;-67
2023/04/25 13:32:52;;;;;;;7.35;0.90;;;;;;;;;;5031720;28;20638;-67
2023/04/25 13:35:17;;;;;;;5.10;1.00;;;;;;;;;;5038838;28;20219;-67
2023/04/25 13:37:43;;;;;;;3.35;0.73;;;;;;;;;;5050546;28;20235;-68
2023/04/25 13:40:10;;;;;;;2.70;0.70;;;;;;;;;;5037661;28;20194;-68
2023/04/25 13:42:37;;;;;;;4.00;0.93;;;;;;;;;;5036730;28;20707;-68
2023/04/25 13:45:02;;;;;;;4.90;1.15;;;;;;;;;;5034612;28;20230;-69
2023/04/25 13:47:28;;;;;;;4.78;0.80;;;;;;;;;;5031536;28;20248;-68
2023/04/25 13:49:54;;;;;;;3.22;0.85;;;;;;;;;;5034263;28;20233;-68
2023/04/25 13:52:20;;;;;;;8.07;1.30;;;;;;;;;;5038799;28;20235;-68
2023/04/25 13:54:45;;;;;;;5.10;0.80;;;;;;;;;;5037301;28;20220;-67
2023/04/25 13:57:11;;;;;;;2.03;0.85;;;;;;;;;;5042965;28;20197;-69
2023/04/25 13:59:37;;;;;;;8.48;1.20;;;;;;;;;;5045666;28;20185;-68
2023/04/25 14:02:02;;;;;;;3.13;0.80;;;;;;;;;;5035491;28;20210;-68
2023/04/25 14:04:28;;;;;;;4.05;0.70;;;;;;;;;;5038078;28;20225;-68
2023/04/25 14:06:53;;;;;;;4.97;0.60;;;;;;;;;;5033279;28;20231;-69
2023/04/25 14:09:20;;;;;;;10.10;0.88;;;;;;;;;;5042753;28;20189;-68
2023/04/25 14:11:46;;;;;;;3.03;0.93;;;;;;;;;;5031009;28;20612;-70
2023/04/25 14:14:12;;;;;;;5.32;1.05;;;;;;;;;;5044098;28;20193;-67
2023/04/25 14:16:37;;;;;;;5.18;1.15;;;;;;;;;;5034967;28;20186;-69
2023/04/25 14:19:03;;;;;;;4.03;0.90;;;;;;;;;;5036392;28;20518;-68
2023/04/25 14:21:29;;;;;;;6.93;0.95;;;;;;;;;;5042900;28;20201;-69
2023/04/25 14:23:54;;;;;;;5.28;1.13;;;;;;;;;;5029185;28;20198;-67
2023/04/25 14:26:20;;;;;;;4.35;0.68;;;;;;;;;;5032537;28;20214;-69
2023/04/25 14:28:45;;;;;;;5.30;0.90;;;;;;;;;;5037494;28;20592;-69
2023/04/25 14:31:11;;;;;;;3.22;0.80;;;;;;;;;;5044436;28;20190;-67
2023/04/25 14:33:39;;;;;;;4.55;0.70;;;;;;;;;;5041518;28;20602;-68